sensor_id;sensor_type;location;lat;lon;timestamp;pressure;altitude;pressure_sealevel;temperature;humidity
40708;BME280;26392;42.696;23.350;2023-01-25T00:00:06;96445.94;;;2.72;100.00
40708;BME280;26392;42.696;23.350;2023-01-25T00:02:32;96457.22;;;2.75;100.00
40708;BME280;26392;42.696;23.350;2023-01-25T00:04:57;96445.13;;;2.71;100.00
40708;BME280;26392;42.696;23.350;2023-01-25T00:07:22;96447.16;;;2.69;100.00
40708;BME280;26392;42.696;23.350;2023-01-25T00:09:48;96449.50;;;2.72;100.00
40708;BME280;26392;42.696;23.350;2023-01-25T00:12:13;96447.28;;;2.76;100.00
40708;BME280;26392;42.696;23.350;2023-01-25T00:14:39;96448.00;;;2.69;100.00
40708;BME280;26392;42.696;23.350;2023-01-25T00:17:04;96453.75;;;2.66;100.00
40708;BME280;26392;42.696;23.350;2023-01-25T00:19:30;96442.88;;;2.52;100.00
40708;BME280;26392;42.696;23.350;2023-01-25T00:21:55;96445.81;;;2.42;100.00
40708;BME280;26392;42.696;23.350;2023-01-25T00:24:21;96443.78;;;2.44;100.00
40708;BME280;26392;42.696;23.350;2023-01-25T00:26:49;96434.78;;;2.29;100.00
40708;BME280;26392;42.696;23.350;2023-01-25T00:29:15;96438.22;;;2.45;100.00
40708;BME280;26392;42.696;23.350;2023-01-25T00:37:12;96439.84;;;2.55;100.00
40708;BME280;26392;42.696;23.350;2023-01-25T00:39:38;96448.25;;;2.52;100.00
40708;BME280;26392;42.696;23.350;2023-01-25T00:42:04;96442.94;;;2.43;100.00
40708;BME280;26392;42.696;23.350;2023-01-25T00:44:30;96447.63;;;2.50;100.00
40708;BME280;26392;42.696;23.350;2023-01-25T00:46:55;96458.66;;;2.55;100.00
40708;BME280;26392;42.696;23.350;2023-01-25T00:49:23;96447.22;;;2.61;100.00
40708;BME280;26392;42.696;23.350;2023-01-25T00:51:49;96449.41;;;2.57;100.00
40708;BME280;26392;42.696;23.350;2023-01-25T00:54:15;96453.13;;;2.56;100.00
40708;BME280;26392;42.696;23.350;2023-01-25T00:56:41;96451.09;;;2.58;100.00
40708;BME280;26392;42.696;23.350;2023-01-25T00:59:06;96443.13;;;2.65;100.00
40708;BME280;26392;42.696;23.350;2023-01-25T01:01:33;96452.75;;;2.59;100.00
40708;BME280;26392;42.696;23.350;2023-01-25T01:03:58;96457.56;;;2.72;100.00
40708;BME280;26392;42.696;23.350;2023-01-25T01:06:24;96461.50;;;2.61;100.00
40708;BME280;26392;42.696;23.350;2023-01-25T01:08:49;96451.09;;;2.58;100.00
40708;BME280;26392;42.696;23.350;2023-01-25T01:11:14;96447.63;;;2.50;100.00
40708;BME280;26392;42.696;23.350;2023-01-25T01:13:40;96447.56;;;2.58;100.00
40708;BME280;26392;42.696;23.350;2023-01-25T01:16:07;96443.56;;;2.54;100.00
40708;BME280;26392;42.696;23.350;2023-01-25T01:18:41;96448.47;;;2.50;100.00
40708;BME280;26392;42.696;23.350;2023-01-25T01:21:07;96441.16;;;2.59;100.00
40708;BME280;26392;42.696;23.350;2023-01-25T01:23:33;96438.28;;;2.60;100.00
40708;BME280;26392;42.696;23.350;2023-01-25T01:26:04;96440.91;;;2.68;100.00
40708;BME280;26392;42.696;23.350;2023-01-25T01:28:31;96434.66;;;2.76;100.00
40708;BME280;26392;42.696;23.350;2023-01-25T01:31:02;96428.97;;;2.71;100.00
40708;BME280;26392;42.696;23.350;2023-01-25T01:33:28;96432.63;;;2.78;100.00
40708;BME280;26392;42.696;23.350;2023-01-25T01:35:53;96410.97;;;2.72;100.00
40708;BME280;26392;42.696;23.350;2023-01-25T01:38:19;96422.34;;;2.82;100.00
40708;BME280;26392;42.696;23.350;2023-01-25T01:40:45;96425.69;;;2.84;100.00
40708;BME280;26392;42.696;23.350;2023-01-25T01:43:19;96405.03;;;2.76;100.00
40708;BME280;26392;42.696;23.350;2023-01-25T01:45:54;96426.00;;;2.89;100.00
40708;BME280;26392;42.696;23.350;2023-01-25T01:51:13;96427.91;;;2.80;100.00
40708;BME280;26392;42.696;23.350;2023-01-25T01:53:50;96417.97;;;2.81;100.00
40708;BME280;26392;42.696;23.350;2023-01-25T01:56:20;96415.28;;;2.81;100.00
40708;BME280;26392;42.696;23.350;2023-01-25T01:58:49;96425.03;;;2.82;100.00
40708;BME280;26392;42.696;23.350;2023-01-25T02:01:17;96420.72;;;2.73;100.00
40708;BME280;26392;42.696;23.350;2023-01-25T02:03:44;96426.22;;;2.79;100.00
40708;BME280;26392;42.696;23.350;2023-01-25T02:06:15;96429.28;;;2.76;100.00
40708;BME280;26392;42.696;23.350;2023-01-25T02:08:44;96419.91;;;2.72;100.00
40708;BME280;26392;42.696;23.350;2023-01-25T02:11:11;96423.28;;;2.66;100.00
40708;BME280;26392;42.696;23.350;2023-01-25T02:13:37;96425.50;;;2.62;100.00
40708;BME280;26392;42.696;23.350;2023-01-25T02:16:03;96423.00;;;2.61;100.00
40708;BME280;26392;42.696;23.350;2023-01-25T02:18:30;96425.13;;;2.65;100.00
40708;BME280;26392;42.696;23.350;2023-01-25T02:20:57;96425.50;;;2.62;100.00
40708;BME280;26392;42.696;23.350;2023-01-25T02:26:00;96417.25;;;2.41;100.00
40708;BME280;26392;42.696;23.350;2023-01-25T02:29:08;96419.22;;;2.47;100.00
40708;BME280;26392;42.696;23.350;2023-01-25T02:31:34;96419.75;;;2.42;100.00
40708;BME280;26392;42.696;23.350;2023-01-25T02:33:59;96419.88;;;2.18;100.00
40708;BME280;26392;42.696;23.350;2023-01-25T02:36:33;96426.22;;;1.94;100.00
40708;BME280;26392;42.696;23.350;2023-01-25T02:39:12;96423.91;;;1.83;100.00
40708;BME280;26392;42.696;23.350;2023-01-25T02:41:41;96424.59;;;1.76;100.00
40708;BME280;26392;42.696;23.350;2023-01-25T02:44:10;96418.34;;;1.84;100.00
40708;BME280;26392;42.696;23.350;2023-01-25T02:46:38;96413.84;;;1.76;100.00
40708;BME280;26392;42.696;23.350;2023-01-25T02:49:06;96419.88;;;1.78;100.00
40708;BME280;26392;42.696;23.350;2023-01-25T02:51:34;96417.06;;;1.64;100.00
40708;BME280;26392;42.696;23.350;2023-01-25T02:54:01;96410.03;;;1.63;100.00
40708;BME280;26392;42.696;23.350;2023-01-25T02:56:27;96410.66;;;1.65;100.00
40708;BME280;26392;42.696;23.350;2023-01-25T02:58:52;96408.16;;;1.71;100.00
40708;BME280;26392;42.696;23.350;2023-01-25T03:01:18;96416.81;;;1.82;100.00
40708;BME280;26392;42.696;23.350;2023-01-25T03:03:44;96423.53;;;1.94;100.00
40708;BME280;26392;42.696;23.350;2023-01-25T03:06:10;96412.56;;;1.95;100.00
40708;BME280;26392;42.696;23.350;2023-01-25T03:08:35;96397.84;;;1.83;100.00
40708;BME280;26392;42.696;23.350;2023-01-25T03:11:02;96415.81;;;1.91;100.00
40708;BME280;26392;42.696;23.350;2023-01-25T03:13:29;96423.66;;;2.00;100.00
40708;BME280;26392;42.696;23.350;2023-01-25T03:15:59;96424.28;;;2.11;100.00
40708;BME280;26392;42.696;23.350;2023-01-25T03:18:25;96420.59;;;2.04;100.00
40708;BME280;26392;42.696;23.350;2023-01-25T03:20:50;96417.53;;;2.15;100.00
40708;BME280;26392;42.696;23.350;2023-01-25T03:23:16;96417.34;;;2.24;100.00
40708;BME280;26392;42.696;23.350;2023-01-25T03:25:41;96417.19;;;2.18;100.00
40708;BME280;26392;42.696;23.350;2023-01-25T03:28:06;96407.09;;;2.20;100.00
40708;BME280;26392;42.696;23.350;2023-01-25T03:30:32;96413.84;;;2.16;100.00
40708;BME280;26392;42.696;23.350;2023-01-25T03:32:57;96410.88;;;2.03;100.00
40708;BME280;26392;42.696;23.350;2023-01-25T03:35:23;96411.47;;;2.13;100.00
40708;BME280;26392;42.696;23.350;2023-01-25T03:37:48;96417.41;;;2.08;100.00
40708;BME280;26392;42.696;23.350;2023-01-25T03:40:14;96419.69;;;2.19;100.00
40708;BME280;26392;42.696;23.350;2023-01-25T03:42:39;96414.25;;;2.36;100.00
40708;BME280;26392;42.696;23.350;2023-01-25T03:45:05;96416.44;;;2.32;100.00
40708;BME280;26392;42.696;23.350;2023-01-25T03:47:30;96396.50;;;2.18;100.00
40708;BME280;26392;42.696;23.350;2023-01-25T03:49:56;96407.72;;;2.30;100.00
40708;BME280;26392;42.696;23.350;2023-01-25T03:52:42;96403.16;;;2.31;100.00
40708;BME280;26392;42.696;23.350;2023-01-25T03:55:12;96402.03;;;2.25;100.00
40708;BME280;26392;42.696;23.350;2023-01-25T03:57:38;96401.78;;;2.35;100.00
40708;BME280;26392;42.696;23.350;2023-01-25T04:00:04;96408.50;;;2.39;100.00
40708;BME280;26392;42.696;23.350;2023-01-25T04:02:29;96401.94;;;2.41;100.00
40708;BME280;26392;42.696;23.350;2023-01-25T04:04:55;96389.06;;;2.29;100.00
40708;BME280;26392;42.696;23.350;2023-01-25T04:07:20;96398.16;;;2.51;100.00
40708;BME280;26392;42.696;23.350;2023-01-25T04:09:45;96395.16;;;2.45;100.00
40708;BME280;26392;42.696;23.350;2023-01-25T04:12:11;96394.50;;;2.43;100.00
40708;BME280;26392;42.696;23.350;2023-01-25T04:14:36;96401.25;;;2.39;100.00
40708;BME280;26392;42.696;23.350;2023-01-25T04:17:01;96384.34;;;2.31;100.00
40708;BME280;26392;42.696;23.350;2023-01-25T04:19:29;96389.41;;;2.26;100.00
40708;BME280;26392;42.696;23.350;2023-01-25T04:21:54;96392.84;;;2.11;100.00
40708;BME280;26392;42.696;23.350;2023-01-25T04:24:20;96394.16;;;2.15;100.00
40708;BME280;26392;42.696;23.350;2023-01-25T04:26:45;96400.44;;;2.08;100.00
40708;BME280;26392;42.696;23.350;2023-01-25T04:29:11;96394.34;;;2.14;100.00
40708;BME280;26392;42.696;23.350;2023-01-25T04:31:37;96396.38;;;2.12;100.00
40708;BME280;26392;42.696;23.350;2023-01-25T04:34:02;96398.03;;;2.13;100.00
40708;BME280;26392;42.696;23.350;2023-01-25T04:36:27;96407.53;;;2.00;100.00
40708;BME280;26392;42.696;23.350;2023-01-25T04:38:53;96405.34;;;1.96;100.00
40708;BME280;26392;42.696;23.350;2023-01-25T04:41:18;96403.91;;;1.85;100.00
40708;BME280;26392;42.696;23.350;2023-01-25T04:43:44;96400.88;;;1.88;100.00
40708;BME280;26392;42.696;23.350;2023-01-25T04:46:09;96412.22;;;1.98;100.00
40708;BME280;26392;42.696;23.350;2023-01-25T04:48:34;96412.38;;;2.05;100.00
40708;BME280;26392;42.696;23.350;2023-01-25T04:51:00;96414.38;;;2.11;100.00
40708;BME280;26392;42.696;23.350;2023-01-25T04:53:26;96406.56;;;2.24;100.00
40708;BME280;26392;42.696;23.350;2023-01-25T04:55:51;96404.84;;;2.32;100.00
40708;BME280;26392;42.696;23.350;2023-01-25T04:58:16;96406.81;;;2.38;100.00
40708;BME280;26392;42.696;23.350;2023-01-25T05:00:42;96402.28;;;2.38;100.00
40708;BME280;26392;42.696;23.350;2023-01-25T05:03:07;96406.13;;;2.44;100.00
40708;BME280;26392;42.696;23.350;2023-01-25T05:05:33;96404.22;;;2.53;100.00
40708;BME280;26392;42.696;23.350;2023-01-25T05:07:58;96409.25;;;2.56;100.00
40708;BME280;26392;42.696;23.350;2023-01-25T05:10:24;96405.66;;;2.63;100.00
40708;BME280;26392;42.696;23.350;2023-01-25T05:12:49;96386.16;;;2.61;100.00
40708;BME280;26392;42.696;23.350;2023-01-25T05:15:14;96399.66;;;2.53;100.00
40708;BME280;26392;42.696;23.350;2023-01-25T05:17:40;96398.13;;;2.59;100.00
40708;BME280;26392;42.696;23.350;2023-01-25T05:20:05;96396.66;;;2.48;100.00
40708;BME280;26392;42.696;23.350;2023-01-25T05:22:31;96401.78;;;2.35;100.00
40708;BME280;26392;42.696;23.350;2023-01-25T05:24:57;96391.22;;;2.33;100.00
40708;BME280;26392;42.696;23.350;2023-01-25T05:27:23;96395.22;;;2.37;100.00
40708;BME280;26392;42.696;23.350;2023-01-25T05:29:49;96403.56;;;2.19;100.00
40708;BME280;26392;42.696;23.350;2023-01-25T05:32:17;96399.50;;;2.23;100.00
40708;BME280;26392;42.696;23.350;2023-01-25T05:34:44;96395.66;;;2.18;100.00
40708;BME280;26392;42.696;23.350;2023-01-25T05:37:13;96393.66;;;2.20;100.00
40708;BME280;26392;42.696;23.350;2023-01-25T05:39:39;96394.94;;;2.24;100.00
40708;BME280;26392;42.696;23.350;2023-01-25T05:42:10;96403.53;;;2.28;100.00
40708;BME280;26392;42.696;23.350;2023-01-25T05:44:36;96402.81;;;2.34;100.00
40708;BME280;26392;42.696;23.350;2023-01-25T05:47:01;96404.88;;;2.23;100.00
40708;BME280;26392;42.696;23.350;2023-01-25T05:49:26;96407.25;;;2.18;100.00
40708;BME280;26392;42.696;23.350;2023-01-25T05:51:52;96414.00;;;2.14;100.00
40708;BME280;26392;42.696;23.350;2023-01-25T05:54:17;96401.13;;;2.01;100.00
40708;BME280;26392;42.696;23.350;2023-01-25T05:56:44;96415.88;;;2.14;100.00
40708;BME280;26392;42.696;23.350;2023-01-25T05:59:11;96406.97;;;2.13;100.00
40708;BME280;26392;42.696;23.350;2023-01-25T06:01:36;96414.75;;;2.00;100.00
40708;BME280;26392;42.696;23.350;2023-01-25T06:04:02;96412.19;;;2.07;100.00
40708;BME280;26392;42.696;23.350;2023-01-25T06:06:28;96418.06;;;2.10;100.00
40708;BME280;26392;42.696;23.350;2023-01-25T06:08:53;96410.84;;;2.11;100.00
40708;BME280;26392;42.696;23.350;2023-01-25T06:11:21;96418.31;;;2.23;100.00
40708;BME280;26392;42.696;23.350;2023-01-25T06:13:47;96414.75;;;2.31;100.00
40708;BME280;26392;42.696;23.350;2023-01-25T06:16:14;96414.41;;;2.34;100.00
40708;BME280;26392;42.696;23.350;2023-01-25T06:18:39;96420.56;;;2.43;100.00
40708;BME280;26392;42.696;23.350;2023-01-25T06:21:05;96409.28;;;2.47;100.00
40708;BME280;26392;42.696;23.350;2023-01-25T06:23:31;96414.63;;;2.56;100.00
40708;BME280;26392;42.696;23.350;2023-01-25T06:25:57;96414.16;;;2.52;100.00
40708;BME280;26392;42.696;23.350;2023-01-25T06:28:23;96414.44;;;2.57;100.00
40708;BME280;26392;42.696;23.350;2023-01-25T06:30:48;96421.25;;;2.68;100.00
40708;BME280;26392;42.696;23.350;2023-01-25T06:33:14;96416.22;;;2.65;100.00
40708;BME280;26392;42.696;23.350;2023-01-25T06:35:39;96404.22;;;2.53;100.00
40708;BME280;26392;42.696;23.350;2023-01-25T06:38:05;96416.75;;;2.60;100.00
40708;BME280;26392;42.696;23.350;2023-01-25T06:40:31;96409.00;;;2.65;100.00
40708;BME280;26392;42.696;23.350;2023-01-25T06:43:07;96412.22;;;2.61;100.00
40708;BME280;26392;42.696;23.350;2023-01-25T06:45:33;96417.25;;;2.64;100.00
40708;BME280;26392;42.696;23.350;2023-01-25T06:47:59;96401.94;;;2.64;100.00
40708;BME280;26392;42.696;23.350;2023-01-25T06:50:24;96396.94;;;2.61;100.00
40708;BME280;26392;42.696;23.350;2023-01-25T06:52:51;96412.09;;;2.77;100.00
40708;BME280;26392;42.696;23.350;2023-01-25T06:55:17;96419.19;;;2.78;100.00
40708;BME280;26392;42.696;23.350;2023-01-25T06:57:42;96413.44;;;2.81;100.00
40708;BME280;26392;42.696;23.350;2023-01-25T07:00:08;96420.09;;;2.85;100.00
40708;BME280;26392;42.696;23.350;2023-01-25T07:02:35;96411.47;;;2.75;100.00
40708;BME280;26392;42.696;23.350;2023-01-25T07:05:00;96396.63;;;2.79;100.00
40708;BME280;26392;42.696;23.350;2023-01-25T07:07:26;96415.09;;;2.82;100.00
40708;BME280;26392;42.696;23.350;2023-01-25T07:09:51;96413.22;;;2.60;100.00
40708;BME280;26392;42.696;23.350;2023-01-25T07:12:17;96408.09;;;2.73;100.00
40708;BME280;26392;42.696;23.350;2023-01-25T07:14:44;96407.31;;;2.64;100.00
40708;BME280;26392;42.696;23.350;2023-01-25T07:17:11;96408.53;;;2.62;100.00
40708;BME280;26392;42.696;23.350;2023-01-25T07:19:37;96408.41;;;2.55;100.00
40708;BME280;26392;42.696;23.350;2023-01-25T07:22:03;96410.84;;;2.65;100.00
40708;BME280;26392;42.696;23.350;2023-01-25T07:24:28;96409.28;;;2.47;100.00
40708;BME280;26392;42.696;23.350;2023-01-25T07:26:54;96415.28;;;2.58;100.00
40708;BME280;26392;42.696;23.350;2023-01-25T07:29:19;96415.19;;;2.66;100.00
40708;BME280;26392;42.696;23.350;2023-01-25T07:31:44;96416.53;;;2.70;100.00
40708;BME280;26392;42.696;23.350;2023-01-25T07:34:10;96423.66;;;2.86;100.00
40708;BME280;26392;42.696;23.350;2023-01-25T07:36:38;96428.50;;;2.90;100.00
40708;BME280;26392;42.696;23.350;2023-01-25T07:39:04;96423.50;;;3.02;100.00
40708;BME280;26392;42.696;23.350;2023-01-25T07:41:29;96421.78;;;3.09;100.00
40708;BME280;26392;42.696;23.350;2023-01-25T07:43:56;96417.81;;;3.20;100.00
40708;BME280;26392;42.696;23.350;2023-01-25T07:46:22;96430.84;;;3.31;100.00
40708;BME280;26392;42.696;23.350;2023-01-25T07:48:50;96425.25;;;3.18;100.00
40708;BME280;26392;42.696;23.350;2023-01-25T07:51:18;96434.94;;;3.04;100.00
40708;BME280;26392;42.696;23.350;2023-01-25T07:53:52;96430.13;;;3.00;100.00
40708;BME280;26392;42.696;23.350;2023-01-25T07:56:19;96429.94;;;3.01;100.00
40708;BME280;26392;42.696;23.350;2023-01-25T07:58:45;96434.13;;;3.04;100.00
40708;BME280;26392;42.696;23.350;2023-01-25T08:01:15;96435.56;;;2.91;100.00
40708;BME280;26392;42.696;23.350;2023-01-25T08:03:42;96417.31;;;2.79;100.00
40708;BME280;26392;42.696;23.350;2023-01-25T08:06:08;96423.94;;;2.68;100.00
40708;BME280;26392;42.696;23.350;2023-01-25T08:08:40;96419.84;;;2.49;100.00
40708;BME280;26392;42.696;23.350;2023-01-25T08:11:27;96433.81;;;2.53;100.00
40708;BME280;26392;42.696;23.350;2023-01-25T08:13:53;96430.84;;;2.39;100.00
40708;BME280;26392;42.696;23.350;2023-01-25T08:16:22;96431.75;;;2.55;100.00
40708;BME280;26392;42.696;23.350;2023-01-25T08:18:49;96427.88;;;2.57;100.00
40708;BME280;26392;42.696;23.350;2023-01-25T08:21:15;96425.81;;;2.67;100.00
40708;BME280;26392;42.696;23.350;2023-01-25T08:23:41;96419.03;;;2.72;100.00
40708;BME280;26392;42.696;23.350;2023-01-25T08:26:09;96422.53;;;2.80;100.00
40708;BME280;26392;42.696;23.350;2023-01-25T08:28:35;96414.31;;;2.97;100.00
40708;BME280;26392;42.696;23.350;2023-01-25T08:33:32;96418.34;;;3.16;100.00
40708;BME280;26392;42.696;23.350;2023-01-25T08:35:57;96412.59;;;3.19;100.00
40708;BME280;26392;42.696;23.350;2023-01-25T08:38:23;96424.81;;;3.29;100.00
40708;BME280;26392;42.696;23.350;2023-01-25T08:40:48;96418.91;;;2.88;100.00
40708;BME280;26392;42.696;23.350;2023-01-25T08:43:14;96422.03;;;3.00;100.00
40708;BME280;26392;42.696;23.350;2023-01-25T08:45:39;96416.22;;;2.88;100.00
40708;BME280;26392;42.696;23.350;2023-01-25T08:48:05;96418.81;;;2.81;100.00
40708;BME280;26392;42.696;23.350;2023-01-25T08:50:30;96406.66;;;2.85;100.00
40708;BME280;26392;42.696;23.350;2023-01-25T08:52:55;96410.31;;;2.92;100.00
40708;BME280;26392;42.696;23.350;2023-01-25T08:55:21;96407.97;;;2.89;100.00
40708;BME280;26392;42.696;23.350;2023-01-25T08:57:46;96411.06;;;3.01;100.00
40708;BME280;26392;42.696;23.350;2023-01-25T09:00:12;96423.09;;;2.90;100.00
40708;BME280;26392;42.696;23.350;2023-01-25T09:02:38;96415.03;;;2.90;100.00
40708;BME280;26392;42.696;23.350;2023-01-25T09:05:03;96408.34;;;2.86;100.00
40708;BME280;26392;42.696;23.350;2023-01-25T09:07:29;96419.94;;;2.87;100.00
40708;BME280;26392;42.696;23.350;2023-01-25T09:09:56;96398.09;;;2.82;100.00
40708;BME280;26392;42.696;23.350;2023-01-25T09:12:22;96401.63;;;3.05;100.00
40708;BME280;26392;42.696;23.350;2023-01-25T09:14:47;96408.81;;;2.90;100.00
40708;BME280;26392;42.696;23.350;2023-01-25T09:17:13;96402.28;;;2.84;100.00
40708;BME280;26392;42.696;23.350;2023-01-25T09:19:38;96405.47;;;2.88;100.00
40708;BME280;26392;42.696;23.350;2023-01-25T09:22:03;96401.09;;;2.87;100.00
40708;BME280;26392;42.696;23.350;2023-01-25T09:24:29;96395.88;;;2.85;100.00
40708;BME280;26392;42.696;23.350;2023-01-25T09:26:54;96398.41;;;2.87;100.00
40708;BME280;26392;42.696;23.350;2023-01-25T09:29:20;96388.88;;;2.99;100.00
40708;BME280;26392;42.696;23.350;2023-01-25T09:31:45;96384.00;;;3.18;100.00
40708;BME280;26392;42.696;23.350;2023-01-25T09:34:12;96380.78;;;3.22;100.00
40708;BME280;26392;42.696;23.350;2023-01-25T09:36:38;96381.25;;;3.41;100.00
40708;BME280;26392;42.696;23.350;2023-01-25T09:39:04;96375.03;;;3.40;100.00
40708;BME280;26392;42.696;23.350;2023-01-25T09:47:46;96362.38;;;3.55;100.00
40708;BME280;26392;42.696;23.350;2023-01-25T09:50:35;96348.56;;;3.58;100.00
40708;BME280;26392;42.696;23.350;2023-01-25T09:55:39;96341.59;;;3.34;100.00
40708;BME280;26392;42.696;23.350;2023-01-25T09:58:11;96341.88;;;3.40;100.00
40708;BME280;26392;42.696;23.350;2023-01-25T10:00:43;96331.53;;;3.58;100.00
40708;BME280;26392;42.696;23.350;2023-01-25T10:03:15;96334.78;;;3.83;100.00
40708;BME280;26392;42.696;23.350;2023-01-25T10:05:47;96338.19;;;4.07;100.00
40708;BME280;26392;42.696;23.350;2023-01-25T10:11:13;96328.00;;;4.23;100.00
40708;BME280;26392;42.696;23.350;2023-01-25T10:13:42;96324.81;;;4.35;100.00
40708;BME280;26392;42.696;23.350;2023-01-25T10:16:35;96314.47;;;4.02;100.00
40708;BME280;26392;42.696;23.350;2023-01-25T10:22:00;96301.03;;;4.45;100.00
40708;BME280;26392;42.696;23.350;2023-01-25T10:24:51;96294.16;;;4.64;100.00
40708;BME280;26392;42.696;23.350;2023-01-25T10:30:26;96297.22;;;4.39;100.00
40708;BME280;26392;42.696;23.350;2023-01-25T10:32:55;96288.31;;;4.60;100.00
40708;BME280;26392;42.696;23.350;2023-01-25T10:35:26;96289.66;;;4.71;100.00
40708;BME280;26392;42.696;23.350;2023-01-25T10:37:53;96288.63;;;4.72;100.00
40708;BME280;26392;42.696;23.350;2023-01-25T10:40:22;96279.44;;;4.94;100.00
40708;BME280;26392;42.696;23.350;2023-01-25T10:43:21;96275.22;;;5.13;100.00
40708;BME280;26392;42.696;23.350;2023-01-25T10:45:48;96261.81;;;5.27;100.00
40708;BME280;26392;42.696;23.350;2023-01-25T10:48:23;96267.47;;;5.38;100.00
40708;BME280;26392;42.696;23.350;2023-01-25T10:50:55;96272.06;;;5.38;100.00
40708;BME280;26392;42.696;23.350;2023-01-25T10:53:26;96265.19;;;5.42;100.00
40708;BME280;26392;42.696;23.350;2023-01-25T10:58:43;96256.28;;;5.48;100.00
40708;BME280;26392;42.696;23.350;2023-01-25T11:01:24;96256.31;;;5.13;100.00
40708;BME280;26392;42.696;23.350;2023-01-25T11:03:50;96246.34;;;4.86;100.00
40708;BME280;26392;42.696;23.350;2023-01-25T11:06:28;96249.47;;;4.89;100.00
40708;BME280;26392;42.696;23.350;2023-01-25T11:08:54;96235.31;;;4.81;100.00
40708;BME280;26392;42.696;23.350;2023-01-25T11:11:36;96251.44;;;4.46;100.00
40708;BME280;26392;42.696;23.350;2023-01-25T11:14:23;96237.25;;;4.37;100.00
40708;BME280;26392;42.696;23.350;2023-01-25T11:16:51;96241.50;;;4.53;100.00
40708;BME280;26392;42.696;23.350;2023-01-25T11:19:35;96232.97;;;4.71;100.00
40708;BME280;26392;42.696;23.350;2023-01-25T11:22:03;96228.53;;;4.42;100.00
40708;BME280;26392;42.696;23.350;2023-01-25T11:24:32;96223.38;;;4.19;100.00
40708;BME280;26392;42.696;23.350;2023-01-25T11:27:24;96220.22;;;4.15;100.00
40708;BME280;26392;42.696;23.350;2023-01-25T11:30:13;96224.47;;;4.24;100.00
40708;BME280;26392;42.696;23.350;2023-01-25T11:32:40;96219.63;;;4.41;100.00
40708;BME280;26392;42.696;23.350;2023-01-25T11:35:13;96218.56;;;4.64;100.00
40708;BME280;26392;42.696;23.350;2023-01-25T11:37:55;96215.59;;;4.87;100.00
40708;BME280;26392;42.696;23.350;2023-01-25T11:46:35;96201.63;;;4.48;100.00
40708;BME280;26392;42.696;23.350;2023-01-25T11:52:01;96192.13;;;4.31;100.00
40708;BME280;26392;42.696;23.350;2023-01-25T11:54:34;96190.44;;;4.23;100.00
40708;BME280;26392;42.696;23.350;2023-01-25T12:02:54;96180.19;;;4.40;100.00
40708;BME280;26392;42.696;23.350;2023-01-25T12:21:20;96158.38;;;4.42;100.00
40708;BME280;26392;42.696;23.350;2023-01-25T12:32:23;96158.22;;;4.43;100.00
40708;BME280;26392;42.696;23.350;2023-01-25T12:37:42;96140.44;;;4.56;100.00
40708;BME280;26392;42.696;23.350;2023-01-25T12:40:18;96147.56;;;4.63;100.00
40708;BME280;26392;42.696;23.350;2023-01-25T12:42:57;96150.25;;;4.63;100.00
40708;BME280;26392;42.696;23.350;2023-01-25T12:45:27;96141.81;;;4.45;100.00
40708;BME280;26392;42.696;23.350;2023-01-25T12:47:58;96144.16;;;4.55;100.00
40708;BME280;26392;42.696;23.350;2023-01-25T12:50:41;96137.44;;;4.72;100.00
40708;BME280;26392;42.696;23.350;2023-01-25T12:53:15;96140.34;;;4.70;100.00
40708;BME280;26392;42.696;23.350;2023-01-25T12:55:42;96124.38;;;4.47;100.00
40708;BME280;26392;42.696;23.350;2023-01-25T13:01:04;96137.06;;;4.47;100.00
40708;BME280;26392;42.696;23.350;2023-01-25T13:09:57;96121.44;;;4.70;100.00
40708;BME280;26392;42.696;23.350;2023-01-25T13:12:24;96124.47;;;4.61;100.00
40708;BME280;26392;42.696;23.350;2023-01-25T13:14:50;96117.91;;;4.42;100.00
40708;BME280;26392;42.696;23.350;2023-01-25T13:19:50;96118.66;;;4.57;100.00
40708;BME280;26392;42.696;23.350;2023-01-25T13:25:22;96109.50;;;4.52;100.00
40708;BME280;26392;42.696;23.350;2023-01-25T13:27:48;96108.44;;;4.53;100.00
40708;BME280;26392;42.696;23.350;2023-01-25T13:30:51;96108.09;;;4.62;100.00
40708;BME280;26392;42.696;23.350;2023-01-25T13:33:31;96110.84;;;4.76;100.00
40708;BME280;26392;42.696;23.350;2023-01-25T13:42:03;96115.69;;;4.17;100.00
40708;BME280;26392;42.696;23.350;2023-01-25T13:44:30;96121.84;;;4.11;100.00
40708;BME280;26392;42.696;23.350;2023-01-25T13:46:59;96118.06;;;4.06;100.00
40708;BME280;26392;42.696;23.350;2023-01-25T13:49:31;96118.28;;;3.83;100.00
40708;BME280;26392;42.696;23.350;2023-01-25T13:51:59;96127.78;;;3.78;100.00
40708;BME280;26392;42.696;23.350;2023-01-25T13:54:25;96114.31;;;3.78;100.00
40708;BME280;26392;42.696;23.350;2023-01-25T13:57:08;96119.22;;;3.75;100.00
40708;BME280;26392;42.696;23.350;2023-01-25T13:59:35;96126.50;;;3.53;100.00
40708;BME280;26392;42.696;23.350;2023-01-25T14:02:01;96110.63;;;3.43;100.00
40708;BME280;26392;42.696;23.350;2023-01-25T14:04:28;96113.66;;;3.33;100.00
40708;BME280;26392;42.696;23.350;2023-01-25T14:06:59;96131.75;;;3.40;100.00
40708;BME280;26392;42.696;23.350;2023-01-25T14:09:26;96123.78;;;3.31;100.00
40708;BME280;26392;42.696;23.350;2023-01-25T14:11:57;96122.84;;;3.24;100.00
40708;BME280;26392;42.696;23.350;2023-01-25T14:14:26;96118.59;;;3.15;100.00
40708;BME280;26392;42.696;23.350;2023-01-25T14:19:41;96134.66;;;3.23;100.00
40708;BME280;26392;42.696;23.350;2023-01-25T14:22:12;96126.13;;;3.05;100.00
40708;BME280;26392;42.696;23.350;2023-01-25T14:24:37;96121.06;;;2.95;100.00
40708;BME280;26392;42.696;23.350;2023-01-25T14:27:04;96130.13;;;3.09;100.00
40708;BME280;26392;42.696;23.350;2023-01-25T14:29:31;96112.22;;;3.01;100.00
40708;BME280;26392;42.696;23.350;2023-01-25T14:31:59;96119.41;;;2.94;100.00
40708;BME280;26392;42.696;23.350;2023-01-25T14:34:25;96105.28;;;2.92;100.00